createdAt,value
2022-08-01T00:00:08.940Z,82.41
2022-08-01T00:02:37.590Z,87.57
2022-08-01T00:05:06.905Z,88.93
2022-08-01T00:07:34.691Z,87.40
2022-08-01T00:10:02.222Z,88.22
2022-08-01T00:12:28.923Z,89.46
2022-08-01T00:14:55.517Z,90.11
2022-08-01T00:17:22.236Z,90.13
2022-08-01T00:19:48.943Z,92.51
2022-08-01T00:22:15.698Z,91.14
2022-08-01T00:24:42.331Z,93.24
2022-08-01T00:27:08.995Z,91.24
2022-08-01T00:30:09.914Z,89.50
2022-08-01T00:32:22.323Z,91.56
2022-08-01T00:34:48.965Z,87.45
2022-08-01T00:37:16.498Z,86.63
2022-08-01T00:39:43.598Z,85.50
2022-08-01T00:42:11.918Z,86.97
2022-08-01T00:44:39.236Z,85.64
2022-08-01T00:47:06.990Z,84.53
2022-08-01T00:49:34.275Z,86.96
2022-08-01T00:52:02.296Z,85.72
2022-08-01T00:54:29.466Z,87.04
2022-08-01T00:56:56.821Z,86.78
2022-08-01T00:59:23.938Z,88.05
2022-08-01T01:01:52.794Z,88.26
2022-08-01T01:04:20.509Z,89.85
2022-08-01T01:07:08.511Z,88.49
2022-08-01T01:09:46.863Z,88.85
2022-08-01T01:12:55.550Z,89.70
2022-08-01T01:15:31.790Z,90.20
2022-08-01T01:18:10.470Z,91.64
2022-08-01T01:20:41.181Z,89.56
2022-08-01T01:23:10.830Z,89.82
2022-08-01T01:26:21.915Z,91.32
2022-08-01T01:28:50.985Z,91.75
2022-08-01T01:31:22.222Z,92.33
2022-08-01T01:33:51.100Z,92.31
2022-08-01T01:36:19.055Z,91.83
2022-08-01T01:38:48.322Z,91.81
2022-08-01T01:41:17.929Z,91.88
2022-08-01T01:43:46.796Z,93.07
2022-08-01T01:46:17.922Z,91.39
2022-08-01T01:48:45.677Z,90.26
2022-08-01T01:51:14.148Z,89.57
2022-08-01T01:53:42.327Z,87.69
2022-08-01T01:56:11.075Z,87.41
2022-08-01T01:58:40.241Z,86.55
2022-08-01T02:01:14.460Z,87.54
2022-08-01T02:03:44.316Z,90.17
2022-08-01T02:06:14.716Z,91.69
2022-08-01T02:08:43.515Z,91.78
2022-08-01T02:11:19.731Z,92.54
2022-08-01T02:14:00.045Z,92.03
2022-08-01T02:16:29.954Z,93.54
2022-08-01T02:18:57.069Z,93.81
2022-08-01T02:21:30.807Z,94.55
2022-08-01T02:24:09.399Z,95.59
2022-08-01T02:26:40.340Z,93.34
2022-08-01T02:29:09.604Z,94.10
2022-08-01T02:31:39.510Z,92.21
2022-08-01T02:34:10.326Z,91.86
2022-08-01T02:36:38.213Z,94.55
2022-08-01T02:39:14.443Z,91.59
2022-08-01T02:41:44.363Z,91.80
2022-08-01T02:44:24.599Z,90.79
2022-08-01T02:46:58.652Z,90.68
2022-08-01T02:49:27.446Z,91.05
2022-08-01T02:51:56.833Z,91.07
2022-08-01T02:54:25.125Z,89.61
2022-08-01T02:56:54.472Z,89.06
2022-08-01T02:59:26.696Z,88.89
2022-08-01T03:01:56.327Z,88.50
2022-08-01T03:04:24.732Z,88.50
2022-08-01T03:06:56.207Z,88.52
2022-08-01T03:09:23.955Z,87.77
2022-08-01T03:11:51.725Z,87.81
2022-08-01T03:14:21.703Z,87.82
2022-08-01T03:16:50.541Z,87.54
2022-08-01T03:19:19.844Z,88.25
2022-08-01T03:21:49.201Z,88.35
2022-08-01T03:24:17.486Z,88.28
2022-08-01T03:26:45.861Z,88.38
2022-08-01T03:29:20.772Z,89.21
2022-08-01T03:31:49.740Z,89.17
2022-08-01T03:34:17.480Z,90.09
2022-08-01T03:36:50.035Z,89.19
2022-08-01T03:39:18.753Z,89.37
2022-08-01T03:41:56.655Z,89.04
2022-08-01T03:44:29.733Z,88.87
2022-08-01T03:47:02.223Z,90.93
2022-08-01T03:49:32.952Z,90.35
2022-08-01T03:52:03.452Z,90.53
2022-08-01T03:54:34.677Z,90.57
2022-08-01T03:57:02.711Z,90.75
2022-08-01T03:59:31.011Z,91.03
2022-08-01T04:01:59.009Z,91.52
2022-08-01T04:04:26.209Z,93.36
2022-08-01T04:06:55.322Z,96.10
2022-08-01T04:09:22.789Z,93.83
2022-08-01T04:11:50.070Z,93.68
2022-08-01T04:14:16.793Z,92.85
2022-08-01T04:16:43.530Z,94.79
2022-08-01T04:19:10.129Z,94.72
2022-08-01T04:21:37.884Z,94.39
2022-08-01T04:24:14.982Z,94.04
2022-08-01T04:26:46.209Z,93.54
2022-08-01T04:29:16.230Z,93.51
2022-08-01T04:31:46.392Z,92.80
2022-08-01T04:34:17.547Z,91.51
2022-08-01T04:36:45.312Z,91.18
2022-08-01T04:39:12.846Z,92.69
2022-08-01T04:41:40.851Z,93.28
2022-08-01T04:44:07.923Z,93.38
2022-08-01T04:46:35.931Z,95.17
2022-08-01T04:49:03.066Z,93.90
2022-08-01T04:51:29.824Z,92.63
2022-08-01T04:53:59.600Z,93.15
2022-08-01T04:56:26.178Z,91.40
2022-08-01T04:59:19.911Z,91.84
2022-08-01T05:01:50.127Z,94.66
2022-08-01T05:04:16.759Z,91.61
2022-08-01T05:06:43.329Z,91.21
2022-08-01T05:09:09.940Z,90.77
2022-08-01T05:11:36.525Z,91.40
2022-08-01T05:14:03.134Z,91.74
2022-08-01T05:16:29.740Z,92.93
2022-08-01T05:18:56.688Z,92.51
2022-08-01T05:21:23.293Z,93.10
2022-08-01T05:23:50.091Z,93.09
2022-08-01T05:26:16.701Z,92.44
2022-08-01T05:28:43.492Z,92.18
2022-08-01T05:31:10.174Z,91.80
2022-08-01T05:33:36.785Z,93.75
2022-08-01T05:36:03.568Z,92.35
2022-08-01T05:38:30.205Z,91.58
2022-08-01T05:40:56.838Z,91.96
2022-08-01T05:43:28.540Z,91.87
2022-08-01T05:45:55.767Z,91.83
2022-08-01T05:48:22.403Z,92.47
2022-08-01T05:50:49.000Z,88.37
2022-08-01T05:53:15.674Z,88.08
2022-08-01T05:55:42.414Z,85.66
2022-08-01T05:58:09.036Z,82.53
2022-08-01T06:00:40.043Z,78.95
2022-08-01T06:03:06.713Z,81.43
2022-08-01T06:05:33.375Z,80.32
2022-08-01T06:08:00.039Z,78.23
2022-08-01T06:10:26.723Z,78.35
2022-08-01T06:12:53.359Z,75.20
2022-08-01T06:15:20.042Z,76.17
2022-08-01T06:17:47.776Z,74.59
2022-08-01T06:20:14.375Z,74.44
2022-08-01T06:22:40.993Z,75.04
2022-08-01T06:25:08.610Z,71.10
2022-08-01T06:27:36.247Z,73.64
2022-08-01T06:30:04.466Z,75.94
2022-08-01T06:32:32.047Z,71.74
2022-08-01T06:34:58.682Z,70.11
2022-08-01T06:37:32.775Z,68.34
2022-08-01T06:40:07.236Z,69.80
2022-08-01T06:42:36.523Z,71.52
2022-08-01T06:45:11.104Z,74.58
2022-08-01T06:47:41.832Z,70.66
2022-08-01T06:50:09.946Z,72.76
2022-08-01T06:52:38.833Z,70.59
2022-08-01T06:55:05.973Z,69.87
2022-08-01T06:57:32.658Z,71.46
2022-08-01T07:00:03.302Z,70.65
2022-08-01T07:02:29.898Z,68.40
2022-08-01T07:04:56.487Z,67.13
2022-08-01T07:07:23.078Z,62.97
2022-08-01T07:09:49.678Z,63.93
2022-08-01T07:12:18.454Z,64.49
2022-08-01T07:14:45.075Z,65.53
2022-08-01T07:17:11.662Z,66.54
2022-08-01T07:19:38.619Z,64.24
2022-08-01T07:22:05.481Z,63.46
2022-08-01T07:24:32.667Z,62.55
2022-08-01T07:27:24.150Z,60.63
2022-08-01T07:29:48.326Z,61.27
2022-08-01T07:32:14.948Z,62.85
2022-08-01T07:34:42.644Z,60.26
2022-08-01T07:37:09.269Z,60.93
2022-08-01T07:39:35.918Z,61.11
2022-08-01T07:42:07.655Z,59.29
2022-08-01T07:44:35.365Z,60.78
2022-08-01T07:47:02.080Z,57.65
2022-08-01T07:49:28.949Z,59.50
2022-08-01T07:52:03.276Z,60.89
2022-08-01T07:54:33.904Z,60.00
2022-08-01T07:57:01.429Z,56.31
2022-08-01T07:59:28.151Z,58.45
2022-08-01T08:01:54.829Z,58.26
2022-08-01T08:04:21.507Z,56.45
2022-08-01T08:06:48.661Z,56.46
2022-08-01T08:09:16.927Z,57.25
2022-08-01T08:11:48.161Z,53.99
2022-08-01T08:14:16.606Z,59.31
2022-08-01T08:16:44.108Z,56.48
2022-08-01T08:19:11.407Z,57.78
2022-08-01T08:21:38.808Z,53.90
2022-08-01T08:24:26.279Z,54.28
2022-08-01T08:27:01.895Z,54.49
2022-08-01T08:29:30.880Z,54.30
2022-08-01T08:31:58.934Z,55.93
2022-08-01T08:34:26.718Z,53.75
2022-08-01T08:36:54.147Z,55.71
2022-08-01T08:39:21.074Z,54.71
2022-08-01T08:41:49.367Z,52.09
2022-08-01T08:44:18.114Z,52.67
2022-08-01T08:46:47.690Z,52.18
2022-08-01T08:49:18.441Z,53.75
2022-08-01T08:51:49.476Z,52.98
2022-08-01T08:54:17.417Z,50.48
2022-08-01T08:56:45.442Z,48.54
2022-08-01T08:59:14.532Z,49.17
2022-08-01T09:01:42.568Z,49.94
2022-08-01T09:04:10.178Z,48.44
2022-08-01T09:06:37.298Z,48.65
2022-08-01T09:09:05.473Z,46.71
2022-08-01T09:11:32.487Z,47.05
2022-08-01T09:14:23.200Z,45.39
2022-08-01T09:16:59.669Z,47.00
2022-08-01T09:19:40.322Z,47.34
2022-08-01T09:22:18.960Z,44.06
2022-08-01T09:25:09.545Z,44.26
2022-08-01T09:27:39.117Z,45.90
2022-08-01T09:30:12.797Z,48.21
2022-08-01T09:32:58.628Z,45.91
2022-08-01T09:35:43.906Z,43.24
2022-08-01T09:38:14.602Z,46.44
2022-08-01T09:40:55.641Z,47.35
2022-08-01T09:43:25.067Z,45.02
2022-08-01T09:45:53.439Z,45.57
2022-08-01T09:48:22.653Z,43.19
2022-08-01T09:50:55.481Z,43.23
2022-08-01T09:53:29.407Z,45.83
2022-08-01T09:56:10.597Z,42.26
2022-08-01T09:59:06.953Z,45.82
2022-08-01T10:02:02.782Z,44.25
2022-08-01T10:04:29.513Z,43.74
2022-08-01T10:07:06.668Z,43.01
2022-08-01T10:09:40.873Z,41.55
2022-08-01T10:12:09.151Z,42.00
2022-08-01T10:14:46.161Z,40.15
2022-08-01T10:17:19.610Z,39.16
2022-08-01T10:19:47.891Z,39.95
2022-08-01T10:22:17.714Z,40.38
2022-08-01T10:24:49.673Z,40.74
2022-08-01T10:27:24.741Z,44.38
2022-08-01T10:30:15.477Z,43.73
2022-08-01T10:32:50.627Z,41.65
2022-08-01T10:35:45.749Z,43.03
2022-08-01T10:38:06.789Z,42.46
2022-08-01T10:40:38.315Z,39.31
2022-08-01T10:43:06.845Z,43.26
2022-08-01T10:45:34.417Z,42.54
2022-08-01T10:48:10.808Z,42.89
2022-08-01T10:50:48.663Z,40.63
2022-08-01T10:53:23.248Z,39.35
2022-08-01T10:55:56.920Z,39.83
2022-08-01T10:58:42.834Z,40.26
2022-08-01T11:01:20.491Z,40.74
2022-08-01T11:03:58.333Z,40.41
2022-08-01T11:06:53.373Z,39.88
2022-08-01T11:09:36.572Z,40.48
2022-08-01T11:12:24.610Z,39.95
2022-08-01T11:15:00.663Z,39.19
2022-08-01T11:17:37.168Z,38.55
2022-08-01T11:20:19.262Z,38.03
2022-08-01T11:22:58.513Z,39.35
2022-08-01T11:26:05.653Z,38.68
2022-08-01T11:28:15.442Z,38.91
2022-08-01T11:30:46.358Z,37.13
2022-08-01T11:33:14.859Z,36.44
2022-08-01T11:36:14.593Z,40.62
2022-08-01T11:39:01.703Z,41.37
2022-08-01T11:41:38.044Z,38.44
2022-08-01T11:44:06.448Z,39.29
2022-08-01T11:46:57.822Z,38.63
2022-08-01T11:49:38.658Z,37.88
2022-08-01T11:52:11.997Z,35.01
2022-08-01T11:54:50.586Z,33.55
2022-08-01T11:57:23.023Z,35.12
2022-08-01T12:00:03.793Z,34.08
2022-08-01T12:02:39.831Z,34.02
2022-08-01T12:05:13.957Z,32.65
2022-08-01T12:07:42.664Z,32.45
2022-08-01T12:10:14.958Z,29.99
2022-08-01T12:12:50.492Z,31.66
2022-08-01T12:15:18.406Z,28.65
2022-08-01T12:17:58.333Z,29.82
2022-08-01T12:20:32.364Z,26.18
2022-08-01T12:23:01.826Z,28.73
2022-08-01T12:25:28.780Z,29.67
2022-08-01T12:27:57.844Z,27.69
2022-08-01T12:30:26.155Z,26.56
2022-08-01T12:32:54.359Z,24.70
2022-08-01T12:35:24.200Z,25.90
2022-08-01T12:37:55.047Z,27.88
2022-08-01T12:40:21.666Z,27.56
2022-08-01T12:42:59.537Z,25.73
2022-08-01T12:45:36.380Z,25.26
2022-08-01T12:48:08.467Z,25.03
2022-08-01T12:50:37.985Z,25.33
2022-08-01T12:53:05.098Z,27.69
2022-08-01T12:55:34.821Z,27.09
2022-08-01T12:58:11.538Z,25.60
2022-08-01T13:00:45.186Z,24.71
2022-08-01T13:03:18.253Z,25.95
2022-08-01T13:05:46.326Z,26.87
2022-08-01T13:08:14.579Z,24.91
2022-08-01T13:10:42.125Z,26.26
2022-08-01T13:13:09.928Z,27.07
2022-08-01T13:15:41.782Z,26.96
2022-08-01T13:18:31.628Z,24.59
2022-08-01T13:21:11.854Z,27.24
2022-08-01T13:24:03.162Z,27.51
2022-08-01T13:27:01.099Z,26.45
2022-08-01T13:29:32.538Z,26.35
2022-08-01T13:32:00.426Z,26.69
2022-08-01T13:34:34.856Z,27.23
2022-08-01T13:37:02.635Z,30.06
2022-08-01T13:39:41.326Z,31.95
2022-08-01T13:42:09.797Z,32.80
2022-08-01T13:44:36.782Z,33.90
2022-08-01T13:47:11.651Z,33.59
2022-08-01T13:49:44.032Z,31.66
2022-08-01T13:52:11.102Z,32.06
2022-08-01T13:54:37.957Z,32.36
2022-08-01T13:57:05.068Z,31.77
2022-08-01T13:59:31.687Z,32.10
2022-08-01T14:01:58.372Z,28.51
2022-08-01T14:04:25.291Z,27.65
2022-08-01T14:06:51.986Z,27.05
2022-08-01T14:09:23.811Z,27.00
2022-08-01T14:11:51.327Z,28.19
2022-08-01T14:14:17.993Z,30.30
2022-08-01T14:16:45.969Z,35.26
2022-08-01T14:19:12.916Z,36.85
2022-08-01T14:21:39.597Z,37.54
2022-08-01T14:24:07.621Z,39.65
2022-08-01T14:26:34.734Z,38.72
2022-08-01T14:29:03.178Z,38.78
2022-08-01T14:31:34.103Z,36.97
2022-08-01T14:34:01.280Z,37.25
2022-08-01T14:36:30.510Z,38.57
2022-08-01T14:39:00.617Z,39.96
2022-08-01T14:41:28.402Z,39.65
2022-08-01T14:43:55.924Z,40.64
2022-08-01T14:46:22.568Z,41.10
2022-08-01T14:48:49.271Z,41.75
2022-08-01T14:51:15.893Z,43.50
2022-08-01T14:53:47.101Z,43.91
2022-08-01T14:56:18.340Z,45.70
2022-08-01T14:58:45.088Z,47.52
2022-08-01T15:01:11.991Z,48.28
2022-08-01T15:03:38.703Z,49.03
2022-08-01T15:06:07.259Z,49.76
2022-08-01T15:08:34.147Z,51.33
2022-08-01T15:11:02.237Z,52.53
2022-08-01T15:13:28.898Z,53.26
2022-08-01T15:15:55.567Z,53.26
2022-08-01T15:18:28.542Z,53.56
2022-08-01T15:20:55.746Z,54.42
2022-08-01T15:23:22.449Z,56.27
2022-08-01T15:25:50.247Z,56.00
2022-08-01T15:28:17.187Z,56.76
2022-08-01T15:30:44.034Z,56.22
2022-08-01T15:33:10.620Z,58.86
2022-08-01T15:35:37.332Z,60.00
2022-08-01T15:38:03.950Z,59.26
2022-08-01T15:40:33.985Z,61.89
2022-08-01T15:43:00.868Z,63.62
2022-08-01T15:48:14.211Z,66.86
2022-08-01T15:50:40.905Z,67.53
2022-08-01T15:53:07.894Z,66.85
2022-08-01T15:55:38.712Z,68.37
2022-08-01T15:58:05.630Z,69.98
2022-08-01T16:00:32.892Z,70.25
2022-08-01T16:03:05.611Z,72.84
2022-08-01T16:05:32.210Z,77.33
2022-08-01T16:08:01.645Z,77.54
2022-08-01T16:10:30.247Z,76.53
2022-08-01T16:12:57.009Z,82.25
2022-08-01T16:15:36.355Z,89.02
2022-08-01T16:18:08.000Z,95.40
2022-08-01T16:20:35.404Z,100.00
2022-08-01T16:23:02.378Z,100.00
2022-08-01T16:25:29.144Z,99.79
2022-08-01T16:27:55.801Z,100.00
2022-08-01T16:30:22.515Z,100.00
2022-08-01T16:32:54.319Z,100.00
2022-08-01T16:35:24.612Z,100.00
2022-08-01T16:38:06.715Z,98.96
2022-08-01T16:40:46.474Z,93.48
2022-08-01T16:43:18.652Z,91.43
2022-08-01T16:45:46.201Z,91.13
2022-08-01T16:48:19.671Z,91.38
2022-08-01T16:50:49.332Z,91.89
2022-08-01T16:53:20.264Z,88.52
2022-08-01T16:55:50.146Z,92.51
2022-08-01T16:58:23.535Z,100.00
2022-08-01T17:00:56.880Z,99.77
2022-08-01T17:03:46.880Z,93.23
2022-08-01T17:06:11.206Z,92.85
2022-08-01T17:08:46.173Z,91.96
2022-08-01T17:11:14.679Z,89.98
2022-08-01T17:13:41.414Z,89.54
2022-08-01T17:16:09.211Z,90.99
2022-08-01T17:18:35.901Z,90.63
2022-08-01T17:21:02.708Z,92.71
2022-08-01T17:23:31.661Z,93.96
2022-08-01T17:25:59.597Z,98.29
2022-08-01T17:28:26.584Z,98.97
2022-08-01T17:30:53.538Z,99.47
2022-08-01T17:33:20.544Z,100.00
2022-08-01T17:35:47.327Z,100.00
2022-08-01T17:38:14.070Z,100.00
2022-08-01T17:40:41.250Z,100.00
2022-08-01T17:43:08.510Z,100.00
2022-08-01T17:45:39.427Z,100.00
2022-08-01T17:48:18.891Z,100.00
2022-08-01T17:50:46.713Z,100.00
2022-08-01T17:53:14.745Z,100.00
2022-08-01T17:55:54.466Z,100.00
2022-08-01T17:58:49.892Z,100.00
2022-08-01T18:01:11.024Z,100.00
2022-08-01T18:03:41.222Z,100.00
2022-08-01T18:06:17.224Z,100.00
2022-08-01T18:08:46.737Z,100.00
2022-08-01T18:11:14.844Z,100.00
2022-08-01T18:13:41.708Z,100.00
2022-08-01T18:16:11.056Z,100.00
2022-08-01T18:18:38.725Z,100.00
2022-08-01T18:21:06.858Z,100.00
2022-08-01T18:23:34.655Z,100.00
2022-08-01T18:26:02.518Z,100.00
2022-08-01T18:28:34.194Z,100.00
2022-08-01T18:31:06.117Z,100.00
2022-08-01T18:33:33.674Z,100.00
2022-08-01T18:36:03.542Z,100.00
2022-08-01T18:38:32.188Z,100.00
2022-08-01T18:40:59.758Z,100.00
2022-08-01T18:43:26.358Z,100.00
2022-08-01T18:45:53.013Z,100.00
2022-08-01T18:48:20.138Z,100.00
2022-08-01T18:50:46.765Z,100.00
2022-08-01T18:53:13.492Z,100.00
2022-08-01T18:55:40.153Z,100.00
2022-08-01T18:58:06.811Z,100.00
2022-08-01T19:00:33.488Z,100.00
2022-08-01T19:03:00.090Z,100.00
2022-08-01T19:05:26.726Z,100.00
2022-08-01T19:08:06.570Z,100.00
2022-08-01T19:10:38.831Z,100.00
2022-08-01T19:13:06.301Z,100.00
2022-08-01T19:15:33.124Z,100.00
2022-08-01T19:18:00.074Z,100.00
2022-08-01T19:20:26.910Z,100.00
2022-08-01T19:22:53.732Z,100.00
2022-08-01T19:25:20.456Z,100.00
2022-08-01T19:27:49.201Z,100.00
2022-08-01T19:30:17.800Z,100.00
2022-08-01T19:32:46.175Z,100.00
2022-08-01T19:35:16.799Z,100.00
2022-08-01T19:37:45.948Z,100.00
2022-08-01T19:40:27.769Z,100.00
2022-08-01T19:42:57.031Z,100.00
2022-08-01T19:45:24.789Z,100.00
2022-08-01T19:47:57.423Z,100.00
2022-08-01T19:50:26.801Z,100.00
2022-08-01T19:53:00.295Z,100.00
2022-08-01T19:55:27.947Z,100.00
2022-08-01T19:58:24.633Z,100.00
2022-08-01T20:00:43.743Z,100.00
2022-08-01T20:03:10.457Z,100.00
2022-08-01T20:05:38.718Z,100.00
2022-08-01T20:08:07.507Z,100.00
2022-08-01T20:10:35.726Z,100.00
2022-08-01T20:13:02.426Z,100.00
2022-08-01T20:15:29.278Z,100.00
2022-08-01T20:17:59.083Z,100.00
2022-08-01T20:20:26.842Z,100.00
2022-08-01T20:22:55.801Z,100.00
2022-08-01T20:25:29.616Z,100.00
2022-08-01T20:28:00.492Z,100.00
2022-08-01T20:30:29.993Z,100.00
2022-08-01T20:33:00.024Z,100.00
2022-08-01T20:35:52.061Z,100.00
2022-08-01T20:38:17.353Z,100.00
2022-08-01T20:40:45.579Z,100.00
2022-08-01T20:43:13.729Z,100.00
2022-08-01T20:45:42.370Z,100.00
2022-08-01T20:48:12.435Z,100.00
2022-08-01T20:51:00.529Z,100.00
2022-08-01T20:53:27.139Z,100.00
2022-08-01T20:56:33.721Z,100.00
2022-08-01T20:59:39.646Z,100.00
2022-08-01T21:02:19.441Z,100.00
2022-08-01T21:04:55.657Z,100.00
2022-08-01T21:07:35.870Z,100.00
2022-08-01T21:10:08.777Z,100.00
2022-08-01T21:12:48.377Z,100.00
2022-08-01T21:15:30.638Z,100.00
2022-08-01T21:18:32.248Z,100.00
2022-08-01T21:21:01.904Z,100.00
2022-08-01T21:23:39.739Z,100.00
2022-08-01T21:26:08.780Z,100.00
2022-08-01T21:28:41.383Z,100.00
2022-08-01T21:31:22.247Z,100.00
2022-08-01T21:34:00.779Z,100.00
2022-08-01T21:36:31.281Z,100.00
2022-08-01T21:38:59.634Z,100.00
2022-08-01T21:42:03.412Z,100.00
2022-08-01T21:44:16.499Z,100.00
2022-08-01T21:46:44.023Z,100.00
2022-08-01T21:49:11.489Z,100.00
2022-08-01T21:51:52.106Z,100.00
2022-08-01T21:54:41.070Z,100.00
2022-08-01T21:57:26.891Z,100.00
2022-08-01T22:00:09.346Z,100.00
2022-08-01T22:02:42.535Z,100.00
2022-08-01T22:05:10.781Z,100.00
2022-08-01T22:07:48.488Z,100.00
2022-08-01T22:10:20.232Z,100.00
2022-08-01T22:12:47.474Z,100.00
2022-08-01T22:15:14.812Z,100.00
2022-08-01T22:17:42.163Z,100.00
2022-08-01T22:20:09.410Z,100.00
2022-08-01T22:22:51.164Z,100.00
2022-08-01T22:25:20.449Z,100.00
2022-08-01T22:28:08.060Z,100.00
2022-08-01T22:30:39.830Z,100.00
2022-08-01T22:33:17.274Z,100.00
2022-08-01T22:35:46.997Z,100.00
2022-08-01T22:38:14.145Z,100.00
2022-08-01T22:40:54.045Z,100.00
2022-08-01T22:43:23.634Z,100.00
2022-08-01T22:46:13.094Z,100.00
2022-08-01T22:48:51.487Z,100.00
2022-08-01T22:51:36.912Z,100.00
2022-08-01T22:54:09.855Z,100.00
2022-08-01T22:56:53.253Z,100.00
2022-08-01T22:59:42.619Z,100.00
2022-08-01T23:02:15.786Z,100.00
2022-08-01T23:04:45.698Z,100.00
2022-08-01T23:07:19.092Z,100.00
2022-08-01T23:09:53.619Z,100.00
2022-08-01T23:12:24.807Z,100.00
2022-08-01T23:14:54.363Z,100.00
2022-08-01T23:17:27.547Z,100.00
2022-08-01T23:19:59.162Z,100.00
2022-08-01T23:22:34.664Z,100.00
2022-08-01T23:25:06.254Z,100.00
2022-08-01T23:27:51.660Z,100.00
2022-08-01T23:30:28.866Z,100.00
2022-08-01T23:32:55.834Z,100.00
2022-08-01T23:35:22.709Z,100.00
2022-08-01T23:37:51.078Z,100.00
2022-08-01T23:40:18.945Z,100.00
2022-08-01T23:42:45.869Z,100.00
2022-08-01T23:45:12.555Z,100.00
2022-08-01T23:47:39.395Z,100.00
2022-08-01T23:50:07.730Z,100.00
2022-08-01T23:52:35.845Z,100.00
2022-08-01T23:55:14.923Z,100.00
2022-08-01T23:57:41.814Z,100.00
